sensor_id;sensor_type;location;lat;lon;timestamp;pressure;altitude;pressure_sealevel;temperature;humidity
75933;BME280;64803;52.356;5.310;2023-06-22T00:02:18;102323.94;;;16.48;100.00
75933;BME280;64803;52.356;5.310;2023-06-22T00:04:44;102334.25;;;16.52;100.00
75933;BME280;64803;52.356;5.310;2023-06-22T00:07:10;102335.97;;;16.45;100.00
75933;BME280;64803;52.356;5.310;2023-06-22T00:09:36;102323.19;;;16.31;100.00
75933;BME280;64803;52.356;5.310;2023-06-22T00:12:03;102321.53;;;16.22;100.00
75933;BME280;64803;52.356;5.310;2023-06-22T00:14:29;102325.63;;;16.18;100.00
75933;BME280;64803;52.356;5.310;2023-06-22T00:16:55;102325.63;;;16.18;100.00
75933;BME280;64803;52.356;5.310;2023-06-22T00:19:23;102320.19;;;16.18;100.00
75933;BME280;64803;52.356;5.310;2023-06-22T00:21:50;102329.13;;;16.27;100.00
75933;BME280;64803;52.356;5.310;2023-06-22T00:24:20;102337.09;;;16.28;100.00
75933;BME280;64803;52.356;5.310;2023-06-22T00:26:48;102330.38;;;16.16;100.00
75933;BME280;64803;52.356;5.310;2023-06-22T00:29:14;102295.94;;;15.94;100.00
75933;BME280;64803;52.356;5.310;2023-06-22T00:31:41;102331.41;;;16.15;100.00
75933;BME280;64803;52.356;5.310;2023-06-22T00:34:06;102339.84;;;16.20;100.00
75933;BME280;64803;52.356;5.310;2023-06-22T00:36:35;102326.47;;;16.19;100.00
75933;BME280;64803;52.356;5.310;2023-06-22T00:39:03;102329.72;;;16.14;100.00
75933;BME280;64803;52.356;5.310;2023-06-22T00:41:30;102336.69;;;16.09;100.00
75933;BME280;64803;52.356;5.310;2023-06-22T00:43:57;102327.41;;;16.03;100.00
75933;BME280;64803;52.356;5.310;2023-06-22T00:46:24;102331.78;;;16.04;100.00
75933;BME280;64803;52.356;5.310;2023-06-22T00:48:51;102330.13;;;16.03;100.00
75933;BME280;64803;52.356;5.310;2023-06-22T00:51:17;102324.69;;;16.03;100.00
75933;BME280;64803;52.356;5.310;2023-06-22T00:53:51;102328.06;;;16.05;100.00
75933;BME280;64803;52.356;5.310;2023-06-22T00:56:17;102321.63;;;16.06;100.00
75933;BME280;64803;52.356;5.310;2023-06-22T00:58:46;102319.94;;;16.05;100.00
75933;BME280;64803;52.356;5.310;2023-06-22T01:01:16;102301.72;;;15.91;100.00
75933;BME280;64803;52.356;5.310;2023-06-22T01:03:42;102316.94;;;16.00;100.00
75933;BME280;64803;52.356;5.310;2023-06-22T01:06:15;102311.53;;;15.92;100.00
75933;BME280;64803;52.356;5.310;2023-06-22T01:08:49;102302.72;;;15.90;100.00
75933;BME280;64803;52.356;5.310;2023-06-22T01:11:26;102311.53;;;15.92;100.00
75933;BME280;64803;52.356;5.310;2023-06-22T01:14:03;102310.53;;;15.93;100.00
75933;BME280;64803;52.356;5.310;2023-06-22T01:16:33;102320.03;;;15.89;100.00
75933;BME280;64803;52.356;5.310;2023-06-22T01:21:53;102320.81;;;15.67;100.00
75933;BME280;64803;52.356;5.310;2023-06-22T01:24:37;102320.13;;;15.65;100.00
75933;BME280;64803;52.356;5.310;2023-06-22T01:27:33;102327.59;;;15.63;100.00
75933;BME280;64803;52.356;5.310;2023-06-22T01:30:03;102328.13;;;15.58;100.00
75933;BME280;64803;52.356;5.310;2023-06-22T01:32:35;102327.63;;;15.55;100.00
75933;BME280;64803;52.356;5.310;2023-06-22T01:35:04;102264.75;;;15.21;100.00
75933;BME280;64803;52.356;5.310;2023-06-22T01:37:33;102317.63;;;15.55;100.00
75933;BME280;64803;52.356;5.310;2023-06-22T01:40:01;102310.31;;;15.64;100.00
75933;BME280;64803;52.356;5.310;2023-06-22T01:42:28;102317.94;;;15.60;100.00
75933;BME280;64803;52.356;5.310;2023-06-22T01:44:55;102325.56;;;15.57;100.00
75933;BME280;64803;52.356;5.310;2023-06-22T01:47:22;102332.53;;;15.51;100.00
75933;BME280;64803;52.356;5.310;2023-06-22T01:49:49;102332.69;;;15.50;100.00
75933;BME280;64803;52.356;5.310;2023-06-22T01:52:17;102332.06;;;15.48;100.00
75933;BME280;64803;52.356;5.310;2023-06-22T01:54:44;102327.81;;;15.45;100.00
75933;BME280;64803;52.356;5.310;2023-06-22T01:57:10;102310.56;;;15.30;100.00
75933;BME280;64803;52.356;5.310;2023-06-22T01:59:50;102324.28;;;15.29;100.00
75933;BME280;64803;52.356;5.310;2023-06-22T02:02:20;102322.94;;;15.17;100.00
75933;BME280;64803;52.356;5.310;2023-06-22T02:04:55;102302.31;;;15.16;100.00
75933;BME280;64803;52.356;5.310;2023-06-22T02:07:23;102313.59;;;15.27;100.00
75933;BME280;64803;52.356;5.310;2023-06-22T02:09:54;102313.47;;;15.29;100.00
75933;BME280;64803;52.356;5.310;2023-06-22T02:12:24;102308.88;;;15.29;100.00
75933;BME280;64803;52.356;5.310;2023-06-22T02:14:52;102307.38;;;15.27;100.00
75933;BME280;64803;52.356;5.310;2023-06-22T02:17:19;102309.03;;;15.28;100.00
75933;BME280;64803;52.356;5.310;2023-06-22T02:19:45;102307.53;;;15.25;100.00
75933;BME280;64803;52.356;5.310;2023-06-22T02:22:11;102304.84;;;15.25;100.00
75933;BME280;64803;52.356;5.310;2023-06-22T02:24:40;102313.78;;;15.26;100.00
75933;BME280;64803;52.356;5.310;2023-06-22T02:27:06;102309.09;;;15.04;100.00
75933;BME280;64803;52.356;5.310;2023-06-22T02:29:33;102306.78;;;14.77;100.00
75933;BME280;64803;52.356;5.310;2023-06-22T02:31:59;102308.28;;;14.63;100.00
75933;BME280;64803;52.356;5.310;2023-06-22T02:34:25;102302.34;;;14.59;100.00
75933;BME280;64803;52.356;5.310;2023-06-22T02:36:54;102313.50;;;14.64;100.00
75933;BME280;64803;52.356;5.310;2023-06-22T02:39:22;102312.84;;;14.62;100.00
75933;BME280;64803;52.356;5.310;2023-06-22T02:41:53;102316.22;;;14.56;100.00
75933;BME280;64803;52.356;5.310;2023-06-22T02:44:22;102313.00;;;14.45;100.00
75933;BME280;64803;52.356;5.310;2023-06-22T02:46:48;102310.63;;;14.42;100.00
75933;BME280;64803;52.356;5.310;2023-06-22T02:49:16;102319.94;;;14.63;100.00
75933;BME280;64803;52.356;5.310;2023-06-22T02:51:45;102320.94;;;14.79;100.00
75933;BME280;64803;52.356;5.310;2023-06-22T02:54:13;102317.56;;;14.85;100.00
75933;BME280;64803;52.356;5.310;2023-06-22T02:56:40;102306.75;;;14.85;100.00
75933;BME280;64803;52.356;5.310;2023-06-22T02:59:06;102313.66;;;15.03;100.00
75933;BME280;64803;52.356;5.310;2023-06-22T03:01:37;102308.91;;;15.21;100.00
75933;BME280;64803;52.356;5.310;2023-06-22T03:04:09;102310.03;;;15.51;100.00
75933;BME280;64803;52.356;5.310;2023-06-22T03:06:36;102312.38;;;15.54;100.00
75933;BME280;64803;52.356;5.310;2023-06-22T03:09:03;102303.75;;;15.50;100.00
75933;BME280;64803;52.356;5.310;2023-06-22T03:11:31;102321.13;;;15.64;100.00
75933;BME280;64803;52.356;5.310;2023-06-22T03:13:58;102317.28;;;15.58;100.00
75933;BME280;64803;52.356;5.310;2023-06-22T03:16:25;102316.63;;;15.48;100.00
75933;BME280;64803;52.356;5.310;2023-06-22T03:18:52;102318.84;;;15.37;100.00
75933;BME280;64803;52.356;5.310;2023-06-22T03:21:23;102318.88;;;15.21;100.00
75933;BME280;64803;52.356;5.310;2023-06-22T03:23:49;102315.50;;;15.11;100.00
75933;BME280;64803;52.356;5.310;2023-06-22T03:26:17;102324.97;;;15.07;100.00
75933;BME280;64803;52.356;5.310;2023-06-22T03:28:43;102314.50;;;15.20;100.00
75933;BME280;64803;52.356;5.310;2023-06-22T03:31:09;102320.56;;;15.22;100.00
75933;BME280;64803;52.356;5.310;2023-06-22T03:33:37;102323.78;;;15.17;100.00
75933;BME280;64803;52.356;5.310;2023-06-22T03:36:03;102328.69;;;15.14;100.00
75933;BME280;64803;52.356;5.310;2023-06-22T03:38:30;102328.88;;;15.04;100.00
75933;BME280;64803;52.356;5.310;2023-06-22T03:40:57;102319.94;;;14.96;100.00
75933;BME280;64803;52.356;5.310;2023-06-22T03:43:23;102316.53;;;15.02;100.00
75933;BME280;64803;52.356;5.310;2023-06-22T03:45:49;102305.75;;;14.94;100.00
75933;BME280;64803;52.356;5.310;2023-06-22T03:48:15;102306.06;;;14.83;100.00
75933;BME280;64803;52.356;5.310;2023-06-22T03:50:42;102314.53;;;14.80;100.00
75933;BME280;64803;52.356;5.310;2023-06-22T03:53:10;102308.09;;;14.89;100.00
75933;BME280;64803;52.356;5.310;2023-06-22T03:55:36;102303.34;;;15.07;100.00
75933;BME280;64803;52.356;5.310;2023-06-22T03:58:02;102310.94;;;15.19;100.00
75933;BME280;64803;52.356;5.310;2023-06-22T04:00:34;102313.78;;;15.26;100.00
75933;BME280;64803;52.356;5.310;2023-06-22T04:03:00;102312.06;;;15.33;100.00
75933;BME280;64803;52.356;5.310;2023-06-22T04:05:26;102321.38;;;15.38;100.00
75933;BME280;64803;52.356;5.310;2023-06-22T04:07:52;102312.38;;;15.38;100.00
75933;BME280;64803;52.356;5.310;2023-06-22T04:10:18;102313.94;;;15.40;100.00
75933;BME280;64803;52.356;5.310;2023-06-22T04:12:44;102310.72;;;15.53;100.00
75933;BME280;64803;52.356;5.310;2023-06-22T04:15:10;102310.66;;;15.61;100.00
75933;BME280;64803;52.356;5.310;2023-06-22T04:17:38;102308.28;;;15.66;100.00
75933;BME280;64803;52.356;5.310;2023-06-22T04:20:04;102305.72;;;15.72;100.00
75933;BME280;64803;52.356;5.310;2023-06-22T04:22:30;102310.25;;;15.80;100.00
75933;BME280;64803;52.356;5.310;2023-06-22T04:24:56;102306.16;;;15.84;100.00
75933;BME280;64803;52.356;5.310;2023-06-22T04:27:22;102304.81;;;15.88;100.00
75933;BME280;64803;52.356;5.310;2023-06-22T04:29:49;102305.94;;;15.94;100.00
75933;BME280;64803;52.356;5.310;2023-06-22T04:32:15;102307.47;;;15.96;100.00
75933;BME280;64803;52.356;5.310;2023-06-22T04:34:42;102306.22;;;16.07;100.00
75933;BME280;64803;52.356;5.310;2023-06-22T04:37:08;102310.19;;;16.19;100.00
75933;BME280;64803;52.356;5.310;2023-06-22T04:39:34;102292.91;;;16.20;100.00
75933;BME280;64803;52.356;5.310;2023-06-22T04:42:01;102298.28;;;16.28;100.00
75933;BME280;64803;52.356;5.310;2023-06-22T04:44:27;102298.41;;;16.34;100.00
75933;BME280;64803;52.356;5.310;2023-06-22T04:46:58;102295.50;;;16.36;100.00
75933;BME280;64803;52.356;5.310;2023-06-22T04:49:30;102289.38;;;16.42;100.00
75933;BME280;64803;52.356;5.310;2023-06-22T04:52:03;102290.66;;;16.54;100.00
75933;BME280;64803;52.356;5.310;2023-06-22T04:54:30;102292.41;;;16.69;100.00
75933;BME280;64803;52.356;5.310;2023-06-22T04:57:00;102294.69;;;16.80;100.00
75933;BME280;64803;52.356;5.310;2023-06-22T04:59:30;102293.22;;;16.93;100.00
75933;BME280;64803;52.356;5.310;2023-06-22T05:02:01;102300.53;;;17.07;100.00
75933;BME280;64803;52.356;5.310;2023-06-22T05:04:28;102301.50;;;17.14;100.00
75933;BME280;64803;52.356;5.310;2023-06-22T05:06:57;102307.88;;;17.21;100.00
75933;BME280;64803;52.356;5.310;2023-06-22T05:09:23;102303.34;;;17.28;100.00
75933;BME280;64803;52.356;5.310;2023-06-22T05:11:52;102304.28;;;17.35;100.00
75933;BME280;64803;52.356;5.310;2023-06-22T05:14:19;102295.69;;;17.46;100.00
75933;BME280;64803;52.356;5.310;2023-06-22T05:16:45;102301.97;;;17.61;100.00
75933;BME280;64803;52.356;5.310;2023-06-22T05:19:12;102292.34;;;17.73;100.00
75933;BME280;64803;52.356;5.310;2023-06-22T05:21:38;102295.88;;;17.88;100.00
75933;BME280;64803;52.356;5.310;2023-06-22T05:24:05;102291.63;;;17.85;100.00
75933;BME280;64803;52.356;5.310;2023-06-22T05:26:33;102275.66;;;17.76;100.00
75933;BME280;64803;52.356;5.310;2023-06-22T05:29:00;102282.16;;;17.96;100.00
75933;BME280;64803;52.356;5.310;2023-06-22T05:31:27;102282.72;;;18.06;100.00
75933;BME280;64803;52.356;5.310;2023-06-22T05:33:54;102277.72;;;18.10;100.00
75933;BME280;64803;52.356;5.310;2023-06-22T05:36:20;102287.88;;;18.22;100.00
75933;BME280;64803;52.356;5.310;2023-06-22T05:38:47;102288.34;;;18.26;100.00
75933;BME280;64803;52.356;5.310;2023-06-22T05:41:13;102290.09;;;18.33;100.00
75933;BME280;64803;52.356;5.310;2023-06-22T05:43:40;102288.69;;;18.37;100.00
75933;BME280;64803;52.356;5.310;2023-06-22T05:46:06;102284.19;;;18.44;100.00
75933;BME280;64803;52.356;5.310;2023-06-22T05:48:32;102294.16;;;18.58;100.00
75933;BME280;64803;52.356;5.310;2023-06-22T05:50:58;102280.84;;;18.70;100.00
75933;BME280;64803;52.356;5.310;2023-06-22T05:53:24;102288.88;;;18.78;100.00
75933;BME280;64803;52.356;5.310;2023-06-22T05:55:51;102291.66;;;18.84;100.00
75933;BME280;64803;52.356;5.310;2023-06-22T05:58:17;102289.28;;;19.02;100.00
75933;BME280;64803;52.356;5.310;2023-06-22T06:00:43;102286.97;;;18.99;100.00
75933;BME280;64803;52.356;5.310;2023-06-22T06:03:10;102285.34;;;19.05;100.00
75933;BME280;64803;52.356;5.310;2023-06-22T06:05:36;102295.38;;;19.32;100.00
75933;BME280;64803;52.356;5.310;2023-06-22T06:08:05;102266.75;;;19.49;100.00
75933;BME280;64803;52.356;5.310;2023-06-22T06:10:32;102281.56;;;19.68;100.00
75933;BME280;64803;52.356;5.310;2023-06-22T06:12:59;102268.50;;;19.63;100.00
75933;BME280;64803;52.356;5.310;2023-06-22T06:15:28;102284.44;;;19.60;100.00
75933;BME280;64803;52.356;5.310;2023-06-22T06:17:54;102272.66;;;19.53;100.00
75933;BME280;64803;52.356;5.310;2023-06-22T06:20:22;102272.09;;;19.64;100.00
75933;BME280;64803;52.356;5.310;2023-06-22T06:22:49;102278.59;;;19.63;100.00
75933;BME280;64803;52.356;5.310;2023-06-22T06:25:15;102262.06;;;19.71;100.00
75933;BME280;64803;52.356;5.310;2023-06-22T06:27:43;102265.41;;;19.73;100.00
75933;BME280;64803;52.356;5.310;2023-06-22T06:30:14;102254.31;;;19.74;100.00
75933;BME280;64803;52.356;5.310;2023-06-22T06:32:41;102262.91;;;19.78;100.00
75933;BME280;64803;52.356;5.310;2023-06-22T06:35:08;102255.63;;;19.98;100.00
75933;BME280;64803;52.356;5.310;2023-06-22T06:37:39;102250.66;;;20.08;100.00
75933;BME280;64803;52.356;5.310;2023-06-22T06:40:10;102235.09;;;20.02;100.00
75933;BME280;64803;52.356;5.310;2023-06-22T06:42:41;102250.31;;;20.37;100.00
75933;BME280;64803;52.356;5.310;2023-06-22T06:45:08;102246.97;;;20.48;100.00
75933;BME280;64803;52.356;5.310;2023-06-22T06:47:34;102243.38;;;20.54;100.00
75933;BME280;64803;52.356;5.310;2023-06-22T06:50:01;102242.53;;;20.47;100.00
75933;BME280;64803;52.356;5.310;2023-06-22T06:52:27;102232.69;;;20.46;100.00
75933;BME280;64803;52.356;5.310;2023-06-22T06:54:53;102233.72;;;20.45;100.00
75933;BME280;64803;52.356;5.310;2023-06-22T06:57:19;102231.00;;;20.39;100.00
75933;BME280;64803;52.356;5.310;2023-06-22T06:59:46;102236.25;;;20.53;100.00
75933;BME280;64803;52.356;5.310;2023-06-22T07:02:12;102239.41;;;20.50;100.00
75933;BME280;64803;52.356;5.310;2023-06-22T07:04:38;102233.97;;;20.50;100.00
75933;BME280;64803;52.356;5.310;2023-06-22T07:07:04;102231.00;;;20.45;100.00
75933;BME280;64803;52.356;5.310;2023-06-22T07:09:31;102232.25;;;20.56;100.00
75933;BME280;64803;52.356;5.310;2023-06-22T07:11:57;102225.97;;;20.68;100.00
75933;BME280;64803;52.356;5.310;2023-06-22T07:14:23;102223.44;;;20.86;100.00
75933;BME280;64803;52.356;5.310;2023-06-22T07:16:49;102224.03;;;20.95;100.00
75933;BME280;64803;52.356;5.310;2023-06-22T07:19:15;102220.91;;;21.04;100.00
75933;BME280;64803;52.356;5.310;2023-06-22T07:21:41;102216.03;;;21.19;100.00
75933;BME280;64803;52.356;5.310;2023-06-22T07:24:07;102218.38;;;20.96;100.00
75933;BME280;64803;52.356;5.310;2023-06-22T07:26:34;102214.56;;;20.97;100.00
75933;BME280;64803;52.356;5.310;2023-06-22T07:29:00;102204.06;;;21.14;100.00
75933;BME280;64803;52.356;5.310;2023-06-22T07:31:26;102205.34;;;21.18;100.00
75933;BME280;64803;52.356;5.310;2023-06-22T07:33:52;102203.56;;;21.37;100.00
75933;BME280;64803;52.356;5.310;2023-06-22T07:36:18;102195.97;;;21.45;100.00
75933;BME280;64803;52.356;5.310;2023-06-22T07:38:44;102204.53;;;21.62;100.00
75933;BME280;64803;52.356;5.310;2023-06-22T07:41:10;102183.06;;;21.59;100.00
75933;BME280;64803;52.356;5.310;2023-06-22T07:43:36;102204.44;;;21.88;100.00
75933;BME280;64803;52.356;5.310;2023-06-22T07:46:03;102197.59;;;22.03;100.00
75933;BME280;64803;52.356;5.310;2023-06-22T07:48:29;102198.41;;;22.04;100.00
75933;BME280;64803;52.356;5.310;2023-06-22T07:50:56;102194.09;;;21.90;100.00
75933;BME280;64803;52.356;5.310;2023-06-22T07:53:22;102185.19;;;22.01;100.00
75933;BME280;64803;52.356;5.310;2023-06-22T07:55:49;102185.53;;;22.11;100.00
75933;BME280;64803;52.356;5.310;2023-06-22T07:58:15;102180.59;;;22.26;100.00
75933;BME280;64803;52.356;5.310;2023-06-22T08:00:42;102179.44;;;22.40;100.00
75933;BME280;64803;52.356;5.310;2023-06-22T08:03:08;102189.91;;;22.43;100.00
75933;BME280;64803;52.356;5.310;2023-06-22T08:05:34;102183.53;;;22.49;100.00
75933;BME280;64803;52.356;5.310;2023-06-22T08:08:00;102182.38;;;22.39;100.00
75933;BME280;64803;52.356;5.310;2023-06-22T08:10:26;102180.63;;;22.44;100.00
75933;BME280;64803;52.356;5.310;2023-06-22T08:12:52;102187.75;;;22.52;100.00
75933;BME280;64803;52.356;5.310;2023-06-22T08:15:18;102179.97;;;22.49;100.00
75933;BME280;64803;52.356;5.310;2023-06-22T08:17:45;102182.25;;;22.52;100.00
75933;BME280;64803;52.356;5.310;2023-06-22T08:20:13;102175.41;;;22.67;100.00
75933;BME280;64803;52.356;5.310;2023-06-22T08:22:40;102180.00;;;22.91;100.00
75933;BME280;64803;52.356;5.310;2023-06-22T08:25:07;102169.81;;;22.80;100.00
75933;BME280;64803;52.356;5.310;2023-06-22T08:27:34;102141.09;;;22.65;100.00
75933;BME280;64803;52.356;5.310;2023-06-22T08:30:01;102150.25;;;22.95;100.00
75933;BME280;64803;52.356;5.310;2023-06-22T08:32:28;102150.00;;;22.96;100.00
75933;BME280;64803;52.356;5.310;2023-06-22T08:34:55;102144.84;;;22.88;100.00
75933;BME280;64803;52.356;5.310;2023-06-22T08:37:22;102146.66;;;22.76;100.00
75933;BME280;64803;52.356;5.310;2023-06-22T08:39:59;102139.66;;;22.98;100.00
75933;BME280;64803;52.356;5.310;2023-06-22T08:42:27;102128.84;;;23.21;100.00
75933;BME280;64803;52.356;5.310;2023-06-22T08:44:53;102125.22;;;23.09;100.00
75933;BME280;64803;52.356;5.310;2023-06-22T08:47:19;102127.56;;;23.24;100.00
75933;BME280;64803;52.356;5.310;2023-06-22T08:49:46;102127.09;;;23.45;100.00
75933;BME280;64803;52.356;5.310;2023-06-22T08:52:13;102128.94;;;23.63;100.00
75933;BME280;64803;52.356;5.310;2023-06-22T08:54:39;102128.31;;;23.90;100.00
75933;BME280;64803;52.356;5.310;2023-06-22T08:57:06;102132.03;;;23.96;100.00
75933;BME280;64803;52.356;5.310;2023-06-22T08:59:32;102109.63;;;23.99;100.00
75933;BME280;64803;52.356;5.310;2023-06-22T09:01:58;102118.22;;;23.61;100.00
75933;BME280;64803;52.356;5.310;2023-06-22T09:04:24;102104.84;;;23.53;100.00
75933;BME280;64803;52.356;5.310;2023-06-22T09:06:50;102110.56;;;23.52;100.00
75933;BME280;64803;52.356;5.310;2023-06-22T09:09:18;102107.59;;;23.65;100.00
75933;BME280;64803;52.356;5.310;2023-06-22T09:11:44;102102.75;;;23.78;100.00
75933;BME280;64803;52.356;5.310;2023-06-22T09:14:11;102099.09;;;23.96;100.00
75933;BME280;64803;52.356;5.310;2023-06-22T09:16:37;102106.47;;;24.25;100.00
75933;BME280;64803;52.356;5.310;2023-06-22T09:19:03;102091.53;;;24.21;100.00
75933;BME280;64803;52.356;5.310;2023-06-22T09:21:29;102092.97;;;24.35;100.00
75933;BME280;64803;52.356;5.310;2023-06-22T09:23:55;102101.81;;;24.48;100.00
75933;BME280;64803;52.356;5.310;2023-06-22T09:26:21;102099.06;;;24.37;100.00
75933;BME280;64803;52.356;5.310;2023-06-22T09:28:48;102101.31;;;24.17;100.00
75933;BME280;64803;52.356;5.310;2023-06-22T09:31:14;102102.63;;;24.26;100.00
75933;BME280;64803;52.356;5.310;2023-06-22T09:33:42;102073.19;;;23.80;100.00
75933;BME280;64803;52.356;5.310;2023-06-22T09:36:08;102100.00;;;24.19;100.00
75933;BME280;64803;52.356;5.310;2023-06-22T09:38:38;102101.78;;;24.14;100.00
75933;BME280;64803;52.356;5.310;2023-06-22T09:41:04;102094.66;;;24.13;100.00
75933;BME280;64803;52.356;5.310;2023-06-22T09:43:31;102094.69;;;23.95;100.00
75933;BME280;64803;52.356;5.310;2023-06-22T09:45:58;102098.72;;;23.81;100.00
75933;BME280;64803;52.356;5.310;2023-06-22T09:48:24;102093.16;;;23.99;100.00
75933;BME280;64803;52.356;5.310;2023-06-22T09:50:50;102107.56;;;24.35;100.00
75933;BME280;64803;52.356;5.310;2023-06-22T09:53:16;102094.50;;;24.66;100.00
75933;BME280;64803;52.356;5.310;2023-06-22T09:55:42;102099.78;;;24.56;100.00
75933;BME280;64803;52.356;5.310;2023-06-22T09:58:08;102090.84;;;24.37;100.00
75933;BME280;64803;52.356;5.310;2023-06-22T10:00:34;102093.44;;;24.55;100.00
75933;BME280;64803;52.356;5.310;2023-06-22T10:03:00;102089.50;;;24.74;100.00
75933;BME280;64803;52.356;5.310;2023-06-22T10:05:26;102080.19;;;24.52;100.00
75933;BME280;64803;52.356;5.310;2023-06-22T10:07:52;102086.78;;;24.51;100.00
75933;BME280;64803;52.356;5.310;2023-06-22T10:10:18;102090.78;;;24.60;100.00
75933;BME280;64803;52.356;5.310;2023-06-22T10:12:55;102085.78;;;24.34;100.00
75933;BME280;64803;52.356;5.310;2023-06-22T10:15:21;102085.22;;;24.32;100.00
75933;BME280;64803;52.356;5.310;2023-06-22T10:17:47;102083.06;;;24.34;100.00
75933;BME280;64803;52.356;5.310;2023-06-22T10:20:14;102077.31;;;24.47;100.00
75933;BME280;64803;52.356;5.310;2023-06-22T10:22:41;102072.53;;;24.66;100.00
75933;BME280;64803;52.356;5.310;2023-06-22T10:25:08;102073.38;;;24.66;100.00
75933;BME280;64803;52.356;5.310;2023-06-22T10:27:34;102065.13;;;24.43;100.00
75933;BME280;64803;52.356;5.310;2023-06-22T10:30:01;102069.81;;;24.42;100.00
75933;BME280;64803;52.356;5.310;2023-06-22T10:32:27;102075.06;;;24.21;100.00
75933;BME280;64803;52.356;5.310;2023-06-22T10:34:54;102074.41;;;23.96;100.00
75933;BME280;64803;52.356;5.310;2023-06-22T10:37:20;102056.19;;;24.01;100.00
75933;BME280;64803;52.356;5.310;2023-06-22T10:39:46;102061.56;;;24.19;100.00
75933;BME280;64803;52.356;5.310;2023-06-22T10:42:12;102070.28;;;24.28;100.00
75933;BME280;64803;52.356;5.310;2023-06-22T10:44:38;102079.13;;;24.30;100.00
75933;BME280;64803;52.356;5.310;2023-06-22T10:47:07;102082.69;;;24.19;100.00
75933;BME280;64803;52.356;5.310;2023-06-22T10:49:33;102083.50;;;24.08;100.00
75933;BME280;64803;52.356;5.310;2023-06-22T10:51:59;102079.47;;;24.10;100.00
75933;BME280;64803;52.356;5.310;2023-06-22T10:54:25;102086.41;;;24.13;100.00
75933;BME280;64803;52.356;5.310;2023-06-22T10:56:51;102078.66;;;23.80;100.00
75933;BME280;64803;52.356;5.310;2023-06-22T10:59:17;102087.13;;;23.79;100.00
75933;BME280;64803;52.356;5.310;2023-06-22T11:01:43;102088.81;;;23.80;100.00
75933;BME280;64803;52.356;5.310;2023-06-22T11:04:09;102082.50;;;23.79;100.00
75933;BME280;64803;52.356;5.310;2023-06-22T11:06:35;102087.25;;;23.72;100.00
75933;BME280;64803;52.356;5.310;2023-06-22T11:09:01;102087.25;;;23.84;100.00
75933;BME280;64803;52.356;5.310;2023-06-22T11:11:27;102088.09;;;23.73;100.00
75933;BME280;64803;52.356;5.310;2023-06-22T11:13:53;102088.09;;;23.73;100.00
75933;BME280;64803;52.356;5.310;2023-06-22T11:16:19;102092.97;;;23.71;100.00
75933;BME280;64803;52.356;5.310;2023-06-22T11:18:45;102084.06;;;23.87;100.00
75933;BME280;64803;52.356;5.310;2023-06-22T11:21:11;102094.00;;;23.99;100.00
75933;BME280;64803;52.356;5.310;2023-06-22T11:23:37;102092.72;;;24.02;100.00
75933;BME280;64803;52.356;5.310;2023-06-22T11:26:03;102096.09;;;23.86;100.00
75933;BME280;64803;52.356;5.310;2023-06-22T11:28:29;102093.84;;;23.83;100.00
75933;BME280;64803;52.356;5.310;2023-06-22T11:30:55;102091.69;;;23.85;100.00
75933;BME280;64803;52.356;5.310;2023-06-22T11:33:21;102084.25;;;23.74;100.00
75933;BME280;64803;52.356;5.310;2023-06-22T11:35:47;102099.88;;;23.73;100.00
75933;BME280;64803;52.356;5.310;2023-06-22T11:38:14;102091.78;;;23.78;100.00
75933;BME280;64803;52.356;5.310;2023-06-22T11:40:40;102083.88;;;23.59;100.00
75933;BME280;64803;52.356;5.310;2023-06-22T11:43:06;102085.59;;;23.23;100.00
75933;BME280;64803;52.356;5.310;2023-06-22T11:45:35;102065.69;;;22.98;100.00
75933;BME280;64803;52.356;5.310;2023-06-22T11:48:01;102077.72;;;22.97;100.00
75933;BME280;64803;52.356;5.310;2023-06-22T11:50:27;102074.06;;;22.85;100.00
75933;BME280;64803;52.356;5.310;2023-06-22T11:52:55;102068.75;;;22.90;100.00
75933;BME280;64803;52.356;5.310;2023-06-22T11:55:21;102070.63;;;22.90;100.00
75933;BME280;64803;52.356;5.310;2023-06-22T11:57:57;102076.81;;;22.67;100.00
75933;BME280;64803;52.356;5.310;2023-06-22T12:00:26;102067.22;;;22.58;100.00
75933;BME280;64803;52.356;5.310;2023-06-22T12:02:52;102057.19;;;22.46;100.00
75933;BME280;64803;52.356;5.310;2023-06-22T12:05:21;102059.44;;;22.55;100.00
75933;BME280;64803;52.356;5.310;2023-06-22T12:07:48;102055.91;;;22.48;100.00
75933;BME280;64803;52.356;5.310;2023-06-22T12:10:15;102029.97;;;22.32;100.00
75933;BME280;64803;52.356;5.310;2023-06-22T12:12:41;102060.06;;;22.57;100.00
75933;BME280;64803;52.356;5.310;2023-06-22T12:15:09;102047.84;;;22.35;100.00
75933;BME280;64803;52.356;5.310;2023-06-22T12:17:35;102043.88;;;22.31;100.00
75933;BME280;64803;52.356;5.310;2023-06-22T12:20:02;102036.78;;;22.23;100.00
75933;BME280;64803;52.356;5.310;2023-06-22T12:22:32;102039.31;;;22.25;100.00
75933;BME280;64803;52.356;5.310;2023-06-22T12:24:58;102035.06;;;22.29;100.00
75933;BME280;64803;52.356;5.310;2023-06-22T12:27:25;102032.41;;;22.22;100.00
75933;BME280;64803;52.356;5.310;2023-06-22T12:29:51;102033.81;;;22.25;100.00
75933;BME280;64803;52.356;5.310;2023-06-22T12:32:17;102021.06;;;22.19;100.00
75933;BME280;64803;52.356;5.310;2023-06-22T12:34:45;102028.34;;;22.25;100.00
75933;BME280;64803;52.356;5.310;2023-06-22T12:37:11;102028.19;;;22.20;100.00
75933;BME280;64803;52.356;5.310;2023-06-22T12:39:41;102023.34;;;22.22;100.00
75933;BME280;64803;52.356;5.310;2023-06-22T12:42:08;102025.91;;;22.17;100.00
75933;BME280;64803;52.356;5.310;2023-06-22T12:44:38;102017.09;;;22.15;100.00